createdAt,value
2022-12-28T00:00:13.832Z,94694.50
2022-12-28T00:01:14.172Z,94686.84
2022-12-28T00:02:10.978Z,94685.50
2022-12-28T00:03:07.603Z,94688.09
2022-12-28T00:04:06.751Z,94691.16
2022-12-28T00:05:03.650Z,94690.22
2022-12-28T00:06:00.827Z,94690.06
2022-12-28T00:06:57.390Z,94672.41
2022-12-28T00:07:54.057Z,94677.97
2022-12-28T00:08:54.090Z,94695.44
2022-12-28T00:09:50.684Z,94695.63
2022-12-28T00:11:08.839Z,94700.38
2022-12-28T00:12:04.102Z,94651.84
2022-12-28T00:13:00.666Z,94698.44
2022-12-28T00:13:59.579Z,94699.72
2022-12-28T00:14:56.146Z,94699.41
2022-12-28T00:15:52.955Z,94709.19
2022-12-28T00:16:49.672Z,94710.28
2022-12-28T00:17:46.292Z,94712.75
2022-12-28T00:18:42.895Z,94717.84
2022-12-28T00:19:39.590Z,94712.38
2022-12-28T00:20:36.208Z,94725.53
2022-12-28T00:21:33.886Z,94711.19
2022-12-28T00:22:30.631Z,94731.03
2022-12-28T00:23:28.171Z,94728.59
2022-12-28T00:24:25.952Z,94718.81
2022-12-28T00:25:22.560Z,94730.91
2022-12-28T00:26:20.110Z,94726.19
2022-12-28T00:27:16.724Z,94729.25
2022-12-28T00:28:13.322Z,94696.84
2022-12-28T00:29:09.979Z,94704.56
2022-12-28T00:30:07.188Z,94730.16
2022-12-28T00:31:04.194Z,94725.72
2022-12-28T00:32:00.833Z,94732.50
2022-12-28T00:32:58.446Z,94688.84
2022-12-28T00:33:55.041Z,94733.88
2022-12-28T00:34:51.637Z,94731.53
2022-12-28T00:35:53.892Z,94720.91
2022-12-28T00:37:10.477Z,94714.63
2022-12-28T00:38:08.502Z,94734.84
2022-12-28T00:39:05.721Z,94729.03
2022-12-28T00:40:02.463Z,94724.09
2022-12-28T00:40:59.550Z,94720.50
2022-12-28T00:41:56.181Z,94699.19
2022-12-28T00:42:52.808Z,94721.09
2022-12-28T00:43:49.619Z,94699.19
2022-12-28T00:44:46.292Z,94720.25
2022-12-28T00:45:48.144Z,94728.91
2022-12-28T00:46:44.884Z,94728.19
2022-12-28T00:47:41.520Z,94733.56
2022-12-28T00:48:38.257Z,94735.50
2022-12-28T00:49:35.005Z,94729.28
2022-12-28T00:50:31.730Z,94713.91
2022-12-28T00:51:28.361Z,94733.28
2022-12-28T00:52:25.017Z,94706.03
2022-12-28T00:53:21.667Z,94729.06
2022-12-28T00:54:18.373Z,94702.53
2022-12-28T00:55:15.099Z,94733.97
2022-12-28T00:56:21.146Z,94724.53
2022-12-28T00:57:17.747Z,94733.84
2022-12-28T00:58:15.212Z,94728.66
2022-12-28T00:59:12.538Z,94733.97
2022-12-28T01:00:10.118Z,94710.56
2022-12-28T01:01:13.048Z,94708.31
2022-12-28T01:02:09.727Z,94735.03
2022-12-28T01:03:06.424Z,94734.19
2022-12-28T01:04:03.294Z,94730.88
2022-12-28T01:04:59.857Z,94733.03
2022-12-28T01:05:56.480Z,94705.22
2022-12-28T01:06:53.133Z,94724.16
2022-12-28T01:07:50.354Z,94723.50
2022-12-28T01:08:47.843Z,94720.81
2022-12-28T01:09:44.430Z,94725.13
2022-12-28T01:10:41.075Z,94728.03
2022-12-28T01:11:37.715Z,94727.56
2022-12-28T01:12:38.108Z,94694.56
2022-12-28T01:13:35.259Z,94692.31
2022-12-28T01:14:32.385Z,94721.34
2022-12-28T01:15:28.948Z,94732.44
2022-12-28T01:16:28.931Z,94726.19
2022-12-28T01:17:25.757Z,94721.06
2022-12-28T01:18:22.405Z,94706.78
2022-12-28T01:19:21.695Z,94714.94
2022-12-28T01:20:18.289Z,94709.78
2022-12-28T01:21:17.095Z,94696.28
2022-12-28T01:22:14.570Z,94705.38
2022-12-28T01:23:11.182Z,94708.22
2022-12-28T01:24:08.765Z,94719.16
2022-12-28T01:25:05.596Z,94711.59
2022-12-28T01:26:02.984Z,94683.78
2022-12-28T01:26:59.594Z,94718.72
2022-12-28T01:27:56.201Z,94714.63
2022-12-28T01:28:52.840Z,94673.25
2022-12-28T01:29:49.529Z,94686.13
2022-12-28T01:30:46.101Z,94721.31
2022-12-28T01:31:42.831Z,94723.81
2022-12-28T01:32:39.719Z,94726.91
2022-12-28T01:33:36.484Z,94717.69
2022-12-28T01:34:33.128Z,94712.50
2022-12-28T01:35:29.677Z,94720.53
2022-12-28T01:36:29.311Z,94695.50
2022-12-28T01:37:25.979Z,94716.16
2022-12-28T01:38:22.548Z,94730.47
2022-12-28T01:39:19.150Z,94726.81
2022-12-28T01:40:16.077Z,94723.16
2022-12-28T01:41:15.563Z,94724.66
2022-12-28T01:42:21.008Z,94730.16
2022-12-28T01:43:29.430Z,94715.84
2022-12-28T01:44:26.690Z,94717.22
2022-12-28T01:45:23.540Z,94714.66
2022-12-28T01:46:23.029Z,94717.00
2022-12-28T01:47:26.844Z,94716.72
2022-12-28T01:48:25.024Z,94699.34
2022-12-28T01:49:30.159Z,94713.53
2022-12-28T01:50:29.612Z,94694.22
2022-12-28T01:51:29.330Z,94704.53
2022-12-28T01:52:36.413Z,94702.31
2022-12-28T01:53:33.326Z,94668.22
2022-12-28T01:54:34.046Z,94704.44
2022-12-28T01:55:34.430Z,94705.50
2022-12-28T01:56:31.697Z,94702.22
2022-12-28T01:57:32.518Z,94673.44
2022-12-28T01:58:32.423Z,94710.75
2022-12-28T01:59:33.725Z,94714.44
2022-12-28T02:00:30.636Z,94707.81
2022-12-28T02:01:27.920Z,94710.63
2022-12-28T02:02:24.851Z,94663.47
2022-12-28T02:03:25.934Z,94711.78
2022-12-28T02:04:22.677Z,94656.97
2022-12-28T02:05:21.758Z,94710.06
2022-12-28T02:06:18.464Z,94703.91
2022-12-28T02:07:20.367Z,94702.16
2022-12-28T02:08:38.414Z,94700.59
2022-12-28T02:09:43.825Z,94657.91
2022-12-28T02:10:45.807Z,94670.91
2022-12-28T02:11:44.039Z,94694.88
2022-12-28T02:12:41.422Z,94690.31
2022-12-28T02:13:39.584Z,94664.44
2022-12-28T02:14:36.785Z,94686.63
2022-12-28T02:15:33.429Z,94686.84
2022-12-28T02:16:30.307Z,94680.94
2022-12-28T02:17:27.187Z,94686.44
2022-12-28T02:18:25.501Z,94686.19
2022-12-28T02:19:37.130Z,94688.72
2022-12-28T02:21:09.003Z,94680.28
2022-12-28T02:22:23.719Z,94679.09
2022-12-28T02:23:22.925Z,94679.66
2022-12-28T02:25:12.831Z,94674.78
2022-12-28T02:26:13.090Z,94677.53
2022-12-28T02:27:24.949Z,94669.50
2022-12-28T02:28:58.973Z,94670.94
2022-12-28T02:30:16.562Z,94672.72
2022-12-28T02:31:29.724Z,94668.72
2022-12-28T02:32:41.278Z,94668.00
2022-12-28T02:33:46.612Z,94670.81
2022-12-28T02:34:54.932Z,94669.31
2022-12-28T02:35:58.798Z,94674.78
2022-12-28T02:37:13.144Z,94626.75
2022-12-28T02:38:18.430Z,94673.00
2022-12-28T02:39:21.762Z,94664.69
2022-12-28T02:40:26.480Z,94664.22
2022-12-28T02:41:25.512Z,94661.78
2022-12-28T02:42:24.349Z,94662.41
2022-12-28T02:43:21.150Z,94671.66
2022-12-28T02:44:38.421Z,94674.63
2022-12-28T02:45:59.873Z,94669.13
2022-12-28T02:47:15.441Z,94675.78
2022-12-28T02:48:30.946Z,94672.78
2022-12-28T02:49:46.728Z,94607.88
2022-12-28T02:51:17.407Z,94678.06
2022-12-28T02:52:30.569Z,94687.16
2022-12-28T02:53:42.658Z,94682.22
2022-12-28T02:55:16.215Z,94682.50
2022-12-28T02:56:35.801Z,94686.38
2022-12-28T02:57:41.337Z,94682.25
2022-12-28T02:59:10.647Z,94673.50
2022-12-28T03:00:15.727Z,94681.00
2022-12-28T03:01:30.951Z,94686.13
2022-12-28T03:02:51.831Z,94681.72
2022-12-28T03:04:07.823Z,94684.94
2022-12-28T03:05:14.060Z,94684.56
2022-12-28T03:06:55.499Z,94692.13
2022-12-28T03:08:19.788Z,94664.16
2022-12-28T03:09:20.033Z,94677.41
2022-12-28T03:10:33.441Z,94683.00
2022-12-28T03:11:40.061Z,94682.69
2022-12-28T03:13:44.647Z,94684.03
2022-12-28T03:14:54.049Z,94697.31
2022-12-28T03:15:51.016Z,94687.34
2022-12-28T03:17:11.282Z,94661.72
2022-12-28T03:18:36.888Z,94681.88
2022-12-28T03:20:00.219Z,94683.50
2022-12-28T03:21:18.959Z,94690.31
2022-12-28T03:22:34.616Z,94659.47
2022-12-28T03:23:52.494Z,94662.59
2022-12-28T03:25:08.137Z,94628.38
2022-12-28T03:26:28.079Z,94682.34
2022-12-28T03:27:44.447Z,94682.41
2022-12-28T03:29:02.547Z,94651.91
2022-12-28T03:30:31.694Z,94680.38
2022-12-28T03:31:30.648Z,94677.66
2022-12-28T03:32:27.451Z,94689.38
2022-12-28T03:33:24.202Z,94675.81
2022-12-28T03:34:20.811Z,94679.16
2022-12-28T03:35:20.730Z,94682.06
2022-12-28T03:36:42.725Z,94672.72
2022-12-28T03:38:06.898Z,94644.72
2022-12-28T03:39:05.788Z,94678.50
2022-12-28T03:40:09.170Z,94672.16
2022-12-28T03:41:09.383Z,94671.88
2022-12-28T03:42:31.283Z,94678.13
2022-12-28T03:43:42.013Z,94679.78
2022-12-28T03:44:42.781Z,94662.84
2022-12-28T03:45:46.497Z,94680.38
2022-12-28T03:47:21.538Z,94678.72
2022-12-28T03:48:18.374Z,94685.22
2022-12-28T03:49:15.525Z,94680.69
2022-12-28T03:50:12.687Z,94688.09
2022-12-28T03:51:10.225Z,94681.81
2022-12-28T03:52:09.683Z,94657.44
2022-12-28T03:53:07.648Z,94654.06
2022-12-28T03:54:04.334Z,94662.75
2022-12-28T03:55:01.053Z,94665.50
2022-12-28T03:56:15.925Z,94660.94
2022-12-28T03:57:12.566Z,94658.41
2022-12-28T03:58:09.194Z,94666.22
2022-12-28T03:59:05.799Z,94659.94
2022-12-28T04:00:02.748Z,94624.63
2022-12-28T04:00:59.427Z,94664.44
2022-12-28T04:01:56.160Z,94637.34
2022-12-28T04:02:52.928Z,94651.28
2022-12-28T04:03:49.664Z,94641.13
2022-12-28T04:04:46.279Z,94648.75
2022-12-28T04:05:42.866Z,94663.13
2022-12-28T04:06:39.741Z,94663.88
2022-12-28T04:07:36.418Z,94666.34
2022-12-28T04:08:33.938Z,94676.00
2022-12-28T04:09:32.536Z,94670.50
2022-12-28T04:10:29.124Z,94671.91
2022-12-28T04:11:25.746Z,94671.91
2022-12-28T04:12:24.140Z,94635.34
2022-12-28T04:13:20.779Z,94664.50
2022-12-28T04:14:17.405Z,94667.06
2022-12-28T04:15:14.028Z,94664.63
2022-12-28T04:16:13.258Z,94656.91
2022-12-28T04:17:09.814Z,94655.94
2022-12-28T04:18:06.410Z,94659.94
2022-12-28T04:19:03.144Z,94664.72
2022-12-28T04:19:59.770Z,94663.00
2022-12-28T04:20:57.168Z,94670.13
2022-12-28T04:21:53.857Z,94667.78
2022-12-28T04:22:50.433Z,94663.16
2022-12-28T04:23:47.180Z,94683.09
2022-12-28T04:24:43.796Z,94677.38
2022-12-28T04:25:40.411Z,94686.50
2022-12-28T04:26:37.035Z,94677.09
2022-12-28T04:27:33.654Z,94698.28
2022-12-28T04:28:31.050Z,94701.91
2022-12-28T04:29:27.652Z,94707.09
2022-12-28T04:30:24.366Z,94715.28
2022-12-28T04:31:21.048Z,94707.19
2022-12-28T04:32:17.701Z,94708.19
2022-12-28T04:33:14.302Z,94707.78
2022-12-28T04:34:11.267Z,94714.88
2022-12-28T04:35:08.276Z,94709.00
2022-12-28T04:36:13.494Z,94718.94
2022-12-28T04:37:10.111Z,94720.69
2022-12-28T04:38:06.683Z,94722.94
2022-12-28T04:39:03.398Z,94714.16
2022-12-28T04:40:00.018Z,94716.53
2022-12-28T04:40:56.610Z,94710.47
2022-12-28T04:41:53.389Z,94712.16
2022-12-28T04:42:50.076Z,94677.72
2022-12-28T04:43:46.895Z,94711.00
2022-12-28T04:44:43.572Z,94714.22
2022-12-28T04:45:40.142Z,94714.44
2022-12-28T04:46:36.747Z,94706.66
2022-12-28T04:47:33.506Z,94709.44
2022-12-28T04:48:30.170Z,94692.47
2022-12-28T04:49:26.777Z,94720.81
2022-12-28T04:50:24.119Z,94723.03
2022-12-28T04:51:24.098Z,94715.31
2022-12-28T04:52:22.378Z,94718.91
2022-12-28T04:53:19.284Z,94721.13
2022-12-28T04:54:15.917Z,94728.19
2022-12-28T04:55:31.395Z,94728.31
2022-12-28T04:56:29.803Z,94719.81
2022-12-28T04:57:26.368Z,94707.59
2022-12-28T04:58:23.037Z,94731.19
2022-12-28T04:59:19.570Z,94725.56
2022-12-28T05:00:16.331Z,94730.28
2022-12-28T05:01:15.839Z,94720.47
2022-12-28T05:02:12.632Z,94729.22
2022-12-28T05:03:09.348Z,94684.16
2022-12-28T05:04:07.747Z,94697.56
2022-12-28T05:05:04.760Z,94711.91
2022-12-28T05:06:07.583Z,94713.00
2022-12-28T05:07:04.175Z,94638.16
2022-12-28T05:08:01.604Z,94722.41
2022-12-28T05:08:58.433Z,94732.19
2022-12-28T05:09:54.994Z,94724.66
2022-12-28T05:10:51.616Z,94730.94
2022-12-28T05:11:48.715Z,94721.72
2022-12-28T05:12:45.588Z,94689.50
2022-12-28T05:13:42.678Z,94722.53
2022-12-28T05:14:39.276Z,94717.03
2022-12-28T05:15:38.229Z,94717.59
2022-12-28T05:16:34.963Z,94680.84
2022-12-28T05:17:31.635Z,94719.94
2022-12-28T05:18:28.724Z,94715.09
2022-12-28T05:19:25.290Z,94666.72
2022-12-28T05:20:22.028Z,94717.59
2022-12-28T05:21:23.697Z,94707.59
2022-12-28T05:22:20.359Z,94710.88
2022-12-28T05:23:16.998Z,94710.44
2022-12-28T05:24:13.745Z,94711.75
2022-12-28T05:25:10.350Z,94672.56
2022-12-28T05:26:11.138Z,94718.97
2022-12-28T05:27:07.801Z,94720.81
2022-12-28T05:28:04.635Z,94721.09
2022-12-28T05:29:01.983Z,94690.66
2022-12-28T05:29:58.674Z,94707.25
2022-12-28T05:31:05.041Z,94713.09
2022-12-28T05:32:01.726Z,94705.31
2022-12-28T05:32:58.322Z,94722.94
2022-12-28T05:33:55.640Z,94717.66
2022-12-28T05:34:52.323Z,94709.53
2022-12-28T05:35:49.037Z,94716.09
2022-12-28T05:36:45.638Z,94709.38
2022-12-28T05:37:42.194Z,94663.47
2022-12-28T05:38:39.123Z,94703.88
2022-12-28T05:39:35.700Z,94731.22
2022-12-28T05:40:32.323Z,94710.75
2022-12-28T05:41:30.311Z,94718.59
2022-12-28T05:42:26.939Z,94719.66
2022-12-28T05:43:23.536Z,94714.66
2022-12-28T05:44:20.298Z,94723.53
2022-12-28T05:45:17.000Z,94718.25
2022-12-28T05:46:17.147Z,94715.81
2022-12-28T05:47:13.950Z,94720.31
2022-12-28T05:48:10.535Z,94679.72
2022-12-28T05:49:09.832Z,94722.16
2022-12-28T05:50:06.665Z,94725.59
2022-12-28T05:51:06.058Z,94732.66
2022-12-28T05:52:02.708Z,94707.50
2022-12-28T05:52:59.332Z,94733.75
2022-12-28T05:53:58.301Z,94695.75
2022-12-28T05:54:54.875Z,94662.50
2022-12-28T05:55:51.441Z,94734.84
2022-12-28T05:56:51.561Z,94723.53
2022-12-28T05:57:48.191Z,94735.03
2022-12-28T05:58:46.515Z,94726.81
2022-12-28T05:59:43.100Z,94728.88
2022-12-28T06:00:39.668Z,94731.25
2022-12-28T06:01:39.956Z,94737.59
2022-12-28T06:02:36.737Z,94727.81
2022-12-28T06:03:33.526Z,94712.97
2022-12-28T06:04:30.191Z,94707.50
2022-12-28T06:05:27.253Z,94737.63
2022-12-28T06:06:24.421Z,94739.81
2022-12-28T06:07:21.307Z,94744.63
2022-12-28T06:08:22.553Z,94743.13
2022-12-28T06:09:19.412Z,94742.75
2022-12-28T06:10:16.080Z,94749.41
2022-12-28T06:11:21.045Z,94718.44
2022-12-28T06:12:17.758Z,94742.81
2022-12-28T06:13:14.379Z,94732.03
2022-12-28T06:14:11.031Z,94736.63
2022-12-28T06:15:08.251Z,94712.88
2022-12-28T06:16:07.797Z,94734.47
2022-12-28T06:17:04.468Z,94731.44
2022-12-28T06:18:01.107Z,94703.13
2022-12-28T06:18:58.652Z,94733.22
2022-12-28T06:19:55.321Z,94725.72
2022-12-28T06:20:56.858Z,94725.72
2022-12-28T06:21:53.922Z,94729.31
2022-12-28T06:22:50.537Z,94724.81
2022-12-28T06:23:47.792Z,94717.59
2022-12-28T06:24:44.401Z,94668.00
2022-12-28T06:25:40.934Z,94722.81
2022-12-28T06:26:39.251Z,94719.28
2022-12-28T06:27:35.784Z,94726.31
2022-12-28T06:28:32.540Z,94729.69
2022-12-28T06:29:29.173Z,94719.28
2022-12-28T06:30:25.789Z,94727.66
2022-12-28T06:31:25.067Z,94730.50
2022-12-28T06:32:21.649Z,94738.66
2022-12-28T06:33:18.278Z,94739.41
2022-12-28T06:34:14.892Z,94739.94
2022-12-28T06:35:11.464Z,94742.00
2022-12-28T06:36:20.614Z,94600.34
2022-12-28T06:37:17.503Z,94750.78
2022-12-28T06:38:14.101Z,94749.09
2022-12-28T06:39:12.712Z,94740.78
2022-12-28T06:40:09.677Z,94744.75
2022-12-28T06:41:15.561Z,94746.81
2022-12-28T06:42:12.153Z,94776.44
2022-12-28T06:43:08.802Z,94683.94
2022-12-28T06:44:07.290Z,94779.03
2022-12-28T06:45:05.566Z,94774.56
2022-12-28T06:46:02.889Z,94757.69
2022-12-28T06:46:59.562Z,94776.72
2022-12-28T06:47:56.150Z,94773.28
2022-12-28T06:48:53.216Z,94778.44
2022-12-28T06:49:49.774Z,94769.78
2022-12-28T06:50:58.133Z,94740.50
2022-12-28T06:51:54.719Z,94769.44
2022-12-28T06:52:51.316Z,94773.66
2022-12-28T06:53:49.397Z,94771.47
2022-12-28T06:54:45.951Z,94773.94
2022-12-28T06:55:42.622Z,94778.69
2022-12-28T06:56:39.543Z,94636.53
2022-12-28T06:57:36.090Z,94779.47
2022-12-28T06:58:33.436Z,94751.00
2022-12-28T06:59:30.097Z,94777.34
2022-12-28T07:00:26.697Z,94779.75
2022-12-28T07:01:28.944Z,94780.91
2022-12-28T07:02:25.653Z,94786.34
2022-12-28T07:03:24.229Z,94783.69
2022-12-28T07:04:20.922Z,94779.28
2022-12-28T07:05:17.536Z,94779.09
2022-12-28T07:06:16.251Z,94770.03
2022-12-28T07:07:12.882Z,94779.59
2022-12-28T07:08:12.795Z,94781.47
2022-12-28T07:09:13.628Z,94776.34
2022-12-28T07:10:10.357Z,94765.25
2022-12-28T07:11:16.052Z,94776.75
2022-12-28T07:12:12.617Z,94776.78
2022-12-28T07:13:09.209Z,94775.75
2022-12-28T07:14:06.097Z,94764.47
2022-12-28T07:15:02.698Z,94765.44
2022-12-28T07:16:05.315Z,94734.59
2022-12-28T07:17:02.374Z,94764.28
2022-12-28T07:17:59.287Z,94765.38
2022-12-28T07:18:57.735Z,94763.78
2022-12-28T07:19:55.685Z,94722.53
2022-12-28T07:20:58.960Z,94759.13
2022-12-28T07:21:55.715Z,94769.16
2022-12-28T07:22:53.992Z,94761.53
2022-12-28T07:23:52.068Z,94760.28
2022-12-28T07:24:48.678Z,94764.13
2022-12-28T07:25:45.248Z,94763.78
2022-12-28T07:26:41.844Z,94740.34
2022-12-28T07:27:38.538Z,94771.38
2022-12-28T07:28:37.952Z,94767.22
2022-12-28T07:29:34.563Z,94768.44
2022-12-28T07:30:31.288Z,94766.72
2022-12-28T07:31:30.661Z,94774.78
2022-12-28T07:32:27.351Z,94777.94
2022-12-28T07:33:23.935Z,94776.78
2022-12-28T07:34:20.568Z,94781.09
2022-12-28T07:35:17.313Z,94779.50
2022-12-28T07:36:17.015Z,94773.63
2022-12-28T07:37:13.590Z,94775.41
2022-12-28T07:38:10.228Z,94769.88
2022-12-28T07:39:06.832Z,94770.44
2022-12-28T07:40:03.771Z,94739.13
2022-12-28T07:41:09.476Z,94543.53
2022-12-28T07:42:08.393Z,94757.00
2022-12-28T07:43:04.961Z,94772.91
2022-12-28T07:44:02.594Z,94736.41
2022-12-28T07:44:59.223Z,94764.38
2022-12-28T07:46:02.548Z,94773.25
2022-12-28T07:46:59.207Z,94771.50
2022-12-28T07:47:55.794Z,94767.88
2022-12-28T07:48:53.660Z,94738.81
2022-12-28T07:49:50.356Z,94772.56
2022-12-28T07:50:47.062Z,94769.91
2022-12-28T07:51:43.887Z,94730.63
2022-12-28T07:52:40.581Z,94769.25
2022-12-28T07:53:38.671Z,94778.97
2022-12-28T07:54:35.313Z,94755.78
2022-12-28T07:55:32.131Z,94768.16
2022-12-28T07:56:31.030Z,94776.69
2022-12-28T07:57:27.732Z,94772.00
2022-12-28T07:58:24.377Z,94747.69
2022-12-28T07:59:22.749Z,94776.31
2022-12-28T08:00:22.765Z,94773.22
2022-12-28T08:01:22.039Z,94786.03
2022-12-28T08:02:18.884Z,94771.91
2022-12-28T08:03:15.634Z,94778.97
2022-12-28T08:04:14.250Z,94789.19
2022-12-28T08:05:10.984Z,94789.19
2022-12-28T08:06:28.540Z,94753.00
2022-12-28T08:07:25.196Z,94781.16
2022-12-28T08:08:21.802Z,94785.75
2022-12-28T08:09:18.348Z,94775.72
2022-12-28T08:10:14.934Z,94776.31
2022-12-28T08:11:22.651Z,94781.63
2022-12-28T08:12:19.425Z,94777.19
2022-12-28T08:13:16.816Z,94777.59
2022-12-28T08:14:13.483Z,94760.03
2022-12-28T08:15:10.462Z,94786.34
2022-12-28T08:16:08.195Z,94792.44
2022-12-28T08:17:04.848Z,94768.50
2022-12-28T08:18:01.456Z,94760.94
2022-12-28T08:18:58.478Z,94798.81
2022-12-28T08:19:55.608Z,94793.00
2022-12-28T08:20:52.569Z,94797.13
2022-12-28T08:21:49.210Z,94794.41
2022-12-28T08:22:46.076Z,94775.13
2022-12-28T08:23:42.778Z,94778.19
2022-12-28T08:24:39.366Z,94795.69
2022-12-28T08:25:35.947Z,94796.84
2022-12-28T08:26:38.491Z,94794.00
2022-12-28T08:27:38.437Z,94797.84
2022-12-28T08:28:36.003Z,94796.66
2022-12-28T08:29:32.990Z,94800.06
2022-12-28T08:30:29.640Z,94754.47
2022-12-28T08:31:29.903Z,94795.34
2022-12-28T08:32:26.577Z,94784.81
2022-12-28T08:33:23.271Z,94754.06
2022-12-28T08:34:27.090Z,94792.34
2022-12-28T08:35:23.964Z,94793.41
2022-12-28T08:36:20.930Z,94782.19
2022-12-28T08:37:17.579Z,94753.47
2022-12-28T08:38:14.349Z,94787.78
2022-12-28T08:39:11.943Z,94785.84
2022-12-28T08:40:09.264Z,94677.34
2022-12-28T08:41:08.766Z,94784.06
2022-12-28T08:42:05.536Z,94756.19
2022-12-28T08:43:02.399Z,94773.06
2022-12-28T08:43:59.626Z,94770.66
2022-12-28T08:44:56.281Z,94779.03
2022-12-28T08:46:11.075Z,94762.72
2022-12-28T08:47:07.943Z,94789.28
2022-12-28T08:48:05.103Z,94790.59
2022-12-28T08:49:02.308Z,94796.09
2022-12-28T08:49:59.040Z,94793.00
2022-12-28T08:51:00.484Z,94792.22
2022-12-28T08:51:57.998Z,94793.50
2022-12-28T08:52:54.653Z,94790.66
2022-12-28T08:53:51.710Z,94782.94
2022-12-28T08:54:48.246Z,94782.97
2022-12-28T08:55:44.852Z,94781.72
2022-12-28T08:56:43.565Z,94779.69
2022-12-28T08:57:40.303Z,94786.47
2022-12-28T08:58:37.873Z,94758.84
2022-12-28T08:59:34.557Z,94787.63
2022-12-28T09:00:31.178Z,94789.59
2022-12-28T09:01:31.104Z,94786.09
2022-12-28T09:02:27.844Z,94786.13
2022-12-28T09:03:24.542Z,94786.63
2022-12-28T09:04:22.168Z,94793.59
2022-12-28T09:05:18.866Z,94778.88
2022-12-28T09:06:20.903Z,94775.44
2022-12-28T09:07:17.560Z,94769.72
2022-12-28T09:08:14.156Z,94775.31
2022-12-28T09:09:14.235Z,94774.47
2022-12-28T09:10:10.862Z,94742.69
2022-12-28T09:11:10.336Z,94782.41
2022-12-28T09:12:07.739Z,94784.16
2022-12-28T09:13:04.418Z,94782.09
2022-12-28T09:14:02.250Z,94772.03
2022-12-28T09:14:58.861Z,94761.63
2022-12-28T09:16:01.306Z,94773.88
2022-12-28T09:16:57.856Z,94766.19
2022-12-28T09:17:54.468Z,94766.97
2022-12-28T09:18:54.808Z,94764.94
2022-12-28T09:19:51.396Z,94767.78
2022-12-28T09:20:48.209Z,94750.38
2022-12-28T09:21:45.421Z,94756.88
2022-12-28T09:22:42.122Z,94744.47
2022-12-28T09:23:39.194Z,94755.22
2022-12-28T09:24:35.948Z,94752.50
2022-12-28T09:25:34.407Z,94740.53
2022-12-28T09:26:35.003Z,94756.53
2022-12-28T09:27:31.681Z,94752.53
2022-12-28T09:28:28.783Z,94747.56
2022-12-28T09:29:25.475Z,94743.16
2022-12-28T09:30:22.139Z,94710.75
2022-12-28T09:31:21.235Z,94694.03
2022-12-28T09:32:17.899Z,94748.09
2022-12-28T09:33:33.088Z,94743.03
2022-12-28T09:34:36.679Z,94745.53
2022-12-28T09:35:33.782Z,94747.94
2022-12-28T09:36:43.028Z,94741.28
2022-12-28T09:37:39.780Z,94732.34
2022-12-28T09:38:36.502Z,94740.53
2022-12-28T09:39:33.331Z,94733.03
2022-12-28T09:40:30.187Z,94739.28
2022-12-28T09:41:33.055Z,94742.63
2022-12-28T09:42:30.928Z,94725.69
2022-12-28T09:43:28.136Z,94731.25
2022-12-28T09:44:48.340Z,94732.22
2022-12-28T09:45:46.732Z,94728.91
2022-12-28T09:47:05.014Z,94724.03
2022-12-28T09:48:12.185Z,94720.88
2022-12-28T09:49:15.199Z,94678.41
2022-12-28T09:50:18.826Z,94726.59
2022-12-28T09:51:16.331Z,94718.63
2022-12-28T09:52:18.827Z,94717.63
2022-12-28T09:53:30.282Z,94719.41
2022-12-28T09:54:27.054Z,94724.25
2022-12-28T09:55:25.396Z,94720.75
2022-12-28T09:56:37.332Z,94644.94
2022-12-28T09:57:38.935Z,94722.25
2022-12-28T09:58:41.978Z,94715.97
2022-12-28T09:59:42.479Z,94718.06
2022-12-28T10:00:42.080Z,94718.88
2022-12-28T10:01:41.835Z,94718.97
2022-12-28T10:02:41.053Z,94723.78
2022-12-28T10:03:42.922Z,94713.84
2022-12-28T10:04:43.239Z,94714.44
2022-12-28T10:05:43.081Z,94716.72
2022-12-28T10:06:40.988Z,94713.84
2022-12-28T10:07:38.127Z,94706.41
2022-12-28T10:08:44.246Z,94660.94
2022-12-28T10:09:40.938Z,94705.69
2022-12-28T10:10:43.975Z,94703.25
2022-12-28T10:11:44.309Z,94708.25
2022-12-28T10:12:43.668Z,94711.31
2022-12-28T10:13:56.279Z,94680.56
2022-12-28T10:14:53.760Z,94697.66
2022-12-28T10:15:51.922Z,94684.09
2022-12-28T10:16:49.023Z,94707.06
2022-12-28T10:17:45.908Z,94674.94
2022-12-28T10:18:42.522Z,94703.00
2022-12-28T10:19:39.223Z,94701.94
2022-12-28T10:20:35.937Z,94704.47
2022-12-28T10:21:34.572Z,94702.44
2022-12-28T10:22:40.615Z,94699.19
2022-12-28T10:23:56.628Z,94696.94
2022-12-28T10:24:57.084Z,94698.25
2022-12-28T10:25:56.402Z,94670.97
2022-12-28T10:26:54.823Z,94700.09
2022-12-28T10:27:52.419Z,94655.97
2022-12-28T10:28:54.156Z,94700.50
2022-12-28T10:29:52.747Z,94693.81
2022-12-28T10:31:08.900Z,94665.28
2022-12-28T10:32:09.496Z,94695.41
2022-12-28T10:33:15.578Z,94690.09
2022-12-28T10:34:17.732Z,94665.00
2022-12-28T10:35:23.549Z,94691.69
2022-12-28T10:36:21.096Z,94683.84
2022-12-28T10:37:19.112Z,94683.63
2022-12-28T10:38:24.781Z,94685.19
2022-12-28T10:39:32.737Z,94689.88
2022-12-28T10:40:37.443Z,94684.19
2022-12-28T10:41:38.312Z,94692.75
2022-12-28T10:42:40.124Z,94685.59
2022-12-28T10:43:41.735Z,94687.94
2022-12-28T10:44:40.615Z,94684.50
2022-12-28T10:45:48.587Z,94685.09
2022-12-28T10:47:02.643Z,94685.19
2022-12-28T10:47:59.403Z,94691.09
2022-12-28T10:48:59.332Z,94641.59
2022-12-28T10:50:18.847Z,94696.59
2022-12-28T10:51:21.988Z,94671.38
2022-12-28T10:52:20.682Z,94689.50
2022-12-28T10:53:28.568Z,94692.06
2022-12-28T10:54:28.280Z,94692.19
2022-12-28T10:55:30.186Z,94697.06
2022-12-28T10:56:28.136Z,94698.75
2022-12-28T10:57:27.717Z,94696.47
2022-12-28T10:58:30.806Z,94694.44
2022-12-28T10:59:30.789Z,94677.34
2022-12-28T11:00:27.884Z,94697.66
2022-12-28T11:01:29.545Z,94663.78
2022-12-28T11:02:32.810Z,94703.53
2022-12-28T11:03:32.807Z,94702.88
2022-12-28T11:04:29.491Z,94683.91
2022-12-28T11:05:26.112Z,94698.88
2022-12-28T11:06:27.555Z,94698.84
2022-12-28T11:07:44.226Z,94701.88
2022-12-28T11:08:42.882Z,94708.75
2022-12-28T11:09:39.589Z,94674.81
2022-12-28T11:10:37.589Z,94711.53
2022-12-28T11:11:34.280Z,94691.69
2022-12-28T11:12:33.484Z,94705.56
2022-12-28T11:13:30.195Z,94702.84
2022-12-28T11:14:32.500Z,94703.25
2022-12-28T11:15:31.486Z,94703.84
2022-12-28T11:16:36.829Z,94711.53
2022-12-28T11:17:37.798Z,94702.59
2022-12-28T11:18:37.923Z,94715.22
2022-12-28T11:19:35.317Z,94708.25
2022-12-28T11:20:38.215Z,94708.47
2022-12-28T11:21:36.182Z,94711.34
2022-12-28T11:22:33.934Z,94714.06
2022-12-28T11:23:31.975Z,94720.41
2022-12-28T11:24:28.614Z,94717.06
2022-12-28T11:25:34.643Z,94714.06
2022-12-28T11:26:33.996Z,94694.69
2022-12-28T11:27:30.602Z,94725.94
2022-12-28T11:28:27.265Z,94724.66
2022-12-28T11:29:23.981Z,94723.66
2022-12-28T11:30:21.168Z,94723.31
2022-12-28T11:31:23.970Z,94696.34
2022-12-28T11:32:26.207Z,94717.81
2022-12-28T11:33:28.571Z,94716.53
2022-12-28T11:34:28.939Z,94719.88
2022-12-28T11:35:35.780Z,94722.75
2022-12-28T11:36:39.602Z,94714.75
2022-12-28T11:37:36.177Z,94722.84
2022-12-28T11:38:50.859Z,94711.09
2022-12-28T11:39:49.722Z,94718.44
2022-12-28T11:40:48.051Z,94714.63
2022-12-28T11:41:56.333Z,94715.53
2022-12-28T11:43:01.947Z,94718.44
2022-12-28T11:44:05.766Z,94714.00
2022-12-28T11:45:05.629Z,94714.06
2022-12-28T11:46:22.433Z,94715.59
2022-12-28T11:47:28.745Z,94705.16
2022-12-28T11:48:43.530Z,94715.16